sensor_id;sensor_type;location;lat;lon;timestamp;pressure;altitude;pressure_sealevel;temperature;humidity
69982;BME280;57319;56.274;43.980;2023-02-19T00:01:12;98849.56;;;-11.52;75.04
69982;BME280;57319;56.274;43.980;2023-02-19T00:03:39;98851.88;;;-11.55;74.71
69982;BME280;57319;56.274;43.980;2023-02-19T00:06:08;98843.38;;;-11.58;74.57
69982;BME280;57319;56.274;43.980;2023-02-19T00:08:35;98847.50;;;-11.59;74.94
69982;BME280;57319;56.274;43.980;2023-02-19T00:11:06;98845.94;;;-11.57;74.41
69982;BME280;57319;56.274;43.980;2023-02-19T00:13:37;98848.63;;;-11.54;74.95
69982;BME280;57319;56.274;43.980;2023-02-19T00:18:32;98843.09;;;-11.50;74.69
69982;BME280;57319;56.274;43.980;2023-02-19T00:20:57;98838.13;;;-11.50;74.19
69982;BME280;57319;56.274;43.980;2023-02-19T00:23:23;98832.56;;;-11.46;74.48
69982;BME280;57319;56.274;43.980;2023-02-19T00:25:49;98825.97;;;-11.45;74.33
69982;BME280;57319;56.274;43.980;2023-02-19T00:28:14;98840.00;;;-11.46;73.65
69982;BME280;57319;56.274;43.980;2023-02-19T00:30:40;98834.75;;;-11.50;74.00
69982;BME280;57319;56.274;43.980;2023-02-19T00:33:06;98825.81;;;-11.62;73.50
69982;BME280;57319;56.274;43.980;2023-02-19T00:35:36;98826.81;;;-11.73;73.70
69982;BME280;57319;56.274;43.980;2023-02-19T00:38:02;98827.16;;;-11.80;74.32
69982;BME280;57319;56.274;43.980;2023-02-19T00:40:28;98822.03;;;-11.83;74.48
69982;BME280;57319;56.274;43.980;2023-02-19T00:42:54;98819.34;;;-11.73;74.56
69982;BME280;57319;56.274;43.980;2023-02-19T00:45:20;98815.16;;;-11.74;74.74
69982;BME280;57319;56.274;43.980;2023-02-19T00:47:45;98819.78;;;-11.65;74.03
69982;BME280;57319;56.274;43.980;2023-02-19T00:50:11;98813.59;;;-11.72;74.50
69982;BME280;57319;56.274;43.980;2023-02-19T00:52:36;98806.94;;;-11.73;74.83
69982;BME280;57319;56.274;43.980;2023-02-19T00:55:02;98806.25;;;-11.70;74.33
69982;BME280;57319;56.274;43.980;2023-02-19T00:57:29;98806.16;;;-11.72;74.06
69982;BME280;57319;56.274;43.980;2023-02-19T00:59:55;98790.78;;;-11.66;74.50
69982;BME280;57319;56.274;43.980;2023-02-19T01:02:20;98791.47;;;-11.69;74.80
69982;BME280;57319;56.274;43.980;2023-02-19T01:04:46;98789.16;;;-11.66;74.00
69982;BME280;57319;56.274;43.980;2023-02-19T01:07:12;98792.31;;;-11.68;73.77
69982;BME280;57319;56.274;43.980;2023-02-19T01:09:37;98790.41;;;-11.72;73.90
69982;BME280;57319;56.274;43.980;2023-02-19T01:12:04;98782.31;;;-11.83;73.82
69982;BME280;57319;56.274;43.980;2023-02-19T01:14:31;98780.41;;;-11.87;73.75
69982;BME280;57319;56.274;43.980;2023-02-19T01:16:56;98774.75;;;-12.00;74.76
69982;BME280;57319;56.274;43.980;2023-02-19T01:19:22;98772.66;;;-12.07;74.24
69982;BME280;57319;56.274;43.980;2023-02-19T01:21:48;98763.22;;;-12.13;74.83
69982;BME280;57319;56.274;43.980;2023-02-19T01:24:13;98768.00;;;-12.16;74.79
69982;BME280;57319;56.274;43.980;2023-02-19T01:26:41;98767.69;;;-12.20;74.96
69982;BME280;57319;56.274;43.980;2023-02-19T01:29:07;98768.28;;;-12.24;74.80
69982;BME280;57319;56.274;43.980;2023-02-19T01:31:32;98762.88;;;-12.32;74.94
69982;BME280;57319;56.274;43.980;2023-02-19T01:34:00;98759.25;;;-12.37;74.99
69982;BME280;57319;56.274;43.980;2023-02-19T01:36:26;98758.19;;;-12.41;74.59
69982;BME280;57319;56.274;43.980;2023-02-19T01:38:52;98757.25;;;-12.43;74.63
69982;BME280;57319;56.274;43.980;2023-02-19T01:41:21;98760.22;;;-12.49;74.75
69982;BME280;57319;56.274;43.980;2023-02-19T01:46:40;98758.47;;;-12.50;74.14
69982;BME280;57319;56.274;43.980;2023-02-19T01:51:42;98754.47;;;-12.61;74.07
69982;BME280;57319;56.274;43.980;2023-02-19T01:54:11;98753.34;;;-12.66;74.20
69982;BME280;57319;56.274;43.980;2023-02-19T01:56:40;98754.06;;;-12.81;74.40
69982;BME280;57319;56.274;43.980;2023-02-19T01:59:07;98751.25;;;-12.73;74.56
69982;BME280;57319;56.274;43.980;2023-02-19T02:01:33;98745.00;;;-12.67;74.89
69982;BME280;57319;56.274;43.980;2023-02-19T02:03:59;98754.47;;;-12.74;74.90
69982;BME280;57319;56.274;43.980;2023-02-19T02:06:30;98750.94;;;-12.78;75.13
69982;BME280;57319;56.274;43.980;2023-02-19T02:08:59;98744.94;;;-12.82;75.17
69982;BME280;57319;56.274;43.980;2023-02-19T02:11:50;98747.50;;;-12.93;75.38
69982;BME280;57319;56.274;43.980;2023-02-19T02:14:18;98746.50;;;-12.96;75.01
69982;BME280;57319;56.274;43.980;2023-02-19T02:22:30;98750.13;;;-13.04;75.39
69982;BME280;57319;56.274;43.980;2023-02-19T02:25:28;98744.81;;;-12.97;74.83
69982;BME280;57319;56.274;43.980;2023-02-19T02:31:04;98754.09;;;-13.19;75.12
69982;BME280;57319;56.274;43.980;2023-02-19T02:36:36;98745.50;;;-13.24;74.96
69982;BME280;57319;56.274;43.980;2023-02-19T02:39:07;98748.84;;;-13.37;74.86
69982;BME280;57319;56.274;43.980;2023-02-19T02:41:34;98744.53;;;-13.40;74.75
69982;BME280;57319;56.274;43.980;2023-02-19T02:44:06;98748.47;;;-13.43;75.24
69982;BME280;57319;56.274;43.980;2023-02-19T02:46:34;98743.00;;;-13.51;75.73
69982;BME280;57319;56.274;43.980;2023-02-19T02:49:09;98736.28;;;-13.40;75.89
69982;BME280;57319;56.274;43.980;2023-02-19T02:51:40;98751.56;;;-13.33;75.86
69982;BME280;57319;56.274;43.980;2023-02-19T02:54:20;98751.03;;;-13.28;75.58
69982;BME280;57319;56.274;43.980;2023-02-19T02:57:07;98742.00;;;-13.28;74.75
69982;BME280;57319;56.274;43.980;2023-02-19T02:59:37;98740.25;;;-13.29;74.86
69982;BME280;57319;56.274;43.980;2023-02-19T03:02:14;98737.97;;;-13.26;74.60
69982;BME280;57319;56.274;43.980;2023-02-19T03:08:22;98732.16;;;-13.40;74.74
69982;BME280;57319;56.274;43.980;2023-02-19T03:13:31;98728.84;;;-13.40;75.10
69982;BME280;57319;56.274;43.980;2023-02-19T03:16:23;98735.19;;;-13.44;74.87
69982;BME280;57319;56.274;43.980;2023-02-19T03:19:12;98725.63;;;-13.39;75.50
69982;BME280;57319;56.274;43.980;2023-02-19T03:21:59;98725.50;;;-13.27;75.10
69982;BME280;57319;56.274;43.980;2023-02-19T03:24:31;98729.91;;;-13.23;75.24
69982;BME280;57319;56.274;43.980;2023-02-19T03:27:17;98723.91;;;-13.27;74.81
69982;BME280;57319;56.274;43.980;2023-02-19T03:29:46;98724.75;;;-13.26;74.42
69982;BME280;57319;56.274;43.980;2023-02-19T03:32:41;98727.88;;;-13.29;74.42
69982;BME280;57319;56.274;43.980;2023-02-19T03:35:12;98726.16;;;-13.30;74.13
69982;BME280;57319;56.274;43.980;2023-02-19T03:40:43;98723.84;;;-13.54;74.16
69982;BME280;57319;56.274;43.980;2023-02-19T03:43:22;98712.31;;;-13.53;74.37
69982;BME280;57319;56.274;43.980;2023-02-19T03:46:05;98714.50;;;-13.58;74.37
69982;BME280;57319;56.274;43.980;2023-02-19T03:48:35;98721.72;;;-13.61;74.46
69982;BME280;57319;56.274;43.980;2023-02-19T03:51:26;98714.41;;;-13.59;74.74
69982;BME280;57319;56.274;43.980;2023-02-19T03:56:33;98712.22;;;-13.55;74.25
69982;BME280;57319;56.274;43.980;2023-02-19T03:59:10;98712.69;;;-13.60;73.68
69982;BME280;57319;56.274;43.980;2023-02-19T04:01:54;98722.28;;;-13.65;74.37
69982;BME280;57319;56.274;43.980;2023-02-19T04:04:35;98725.31;;;-13.69;73.91
69982;BME280;57319;56.274;43.980;2023-02-19T04:07:02;98722.41;;;-13.75;74.22
69982;BME280;57319;56.274;43.980;2023-02-19T04:09:35;98724.19;;;-13.86;74.19
69982;BME280;57319;56.274;43.980;2023-02-19T04:12:03;98725.59;;;-13.90;74.42
69982;BME280;57319;56.274;43.980;2023-02-19T04:14:51;98719.22;;;-13.86;74.32
69982;BME280;57319;56.274;43.980;2023-02-19T04:17:25;98712.69;;;-13.86;74.48
69982;BME280;57319;56.274;43.980;2023-02-19T04:19:53;98709.22;;;-13.76;74.22
69982;BME280;57319;56.274;43.980;2023-02-19T04:22:21;98712.34;;;-13.78;74.21
69982;BME280;57319;56.274;43.980;2023-02-19T04:24:49;98713.31;;;-13.76;73.79
69982;BME280;57319;56.274;43.980;2023-02-19T04:27:15;98715.97;;;-13.73;74.01
69982;BME280;57319;56.274;43.980;2023-02-19T04:29:41;98714.78;;;-13.67;74.11
69982;BME280;57319;56.274;43.980;2023-02-19T04:32:09;98712.28;;;-13.67;73.85
69982;BME280;57319;56.274;43.980;2023-02-19T04:34:35;98713.25;;;-13.65;73.67
69982;BME280;57319;56.274;43.980;2023-02-19T04:37:00;98699.47;;;-13.61;73.82
69982;BME280;57319;56.274;43.980;2023-02-19T04:39:26;98713.47;;;-13.48;73.63
69982;BME280;57319;56.274;43.980;2023-02-19T04:41:51;98700.81;;;-13.53;73.56
69982;BME280;57319;56.274;43.980;2023-02-19T04:44:17;98697.19;;;-13.58;73.57
69982;BME280;57319;56.274;43.980;2023-02-19T04:46:43;98702.41;;;-13.53;73.61
69982;BME280;57319;56.274;43.980;2023-02-19T04:49:08;98693.28;;;-13.54;73.53
69982;BME280;57319;56.274;43.980;2023-02-19T04:51:34;98692.63;;;-13.52;73.74
69982;BME280;57319;56.274;43.980;2023-02-19T04:54:00;98694.44;;;-13.49;73.36
69982;BME280;57319;56.274;43.980;2023-02-19T04:56:25;98694.25;;;-13.52;73.47
69982;BME280;57319;56.274;43.980;2023-02-19T04:58:51;98691.47;;;-13.57;73.85
69982;BME280;57319;56.274;43.980;2023-02-19T05:01:17;98693.59;;;-13.50;73.69
69982;BME280;57319;56.274;43.980;2023-02-19T05:03:42;98688.50;;;-13.65;73.64
69982;BME280;57319;56.274;43.980;2023-02-19T05:06:10;98697.63;;;-13.63;74.09
69982;BME280;57319;56.274;43.980;2023-02-19T05:08:37;98693.16;;;-13.69;73.74
69982;BME280;57319;56.274;43.980;2023-02-19T05:11:04;98680.78;;;-13.69;73.82
69982;BME280;57319;56.274;43.980;2023-02-19T05:13:30;98682.88;;;-13.62;74.20
69982;BME280;57319;56.274;43.980;2023-02-19T05:16:02;98677.94;;;-13.62;73.75
69982;BME280;57319;56.274;43.980;2023-02-19T05:18:29;98685.78;;;-13.56;73.40
69982;BME280;57319;56.274;43.980;2023-02-19T05:20:56;98683.53;;;-13.65;73.78
69982;BME280;57319;56.274;43.980;2023-02-19T05:23:22;98683.53;;;-13.65;74.12
69982;BME280;57319;56.274;43.980;2023-02-19T05:25:47;98686.09;;;-13.63;73.63
69982;BME280;57319;56.274;43.980;2023-02-19T05:28:13;98683.16;;;-13.71;74.01
69982;BME280;57319;56.274;43.980;2023-02-19T05:30:46;98687.84;;;-13.62;74.04
69982;BME280;57319;56.274;43.980;2023-02-19T05:33:13;98683.50;;;-13.53;73.93
69982;BME280;57319;56.274;43.980;2023-02-19T05:35:40;98681.00;;;-13.53;73.80
69982;BME280;57319;56.274;43.980;2023-02-19T05:38:06;98685.59;;;-13.45;73.86
69982;BME280;57319;56.274;43.980;2023-02-19T05:40:33;98682.06;;;-13.49;73.58
69982;BME280;57319;56.274;43.980;2023-02-19T05:42:58;98677.56;;;-13.55;73.42
69982;BME280;57319;56.274;43.980;2023-02-19T05:45:24;98683.59;;;-13.51;74.01
69982;BME280;57319;56.274;43.980;2023-02-19T05:47:50;98688.06;;;-13.45;73.80
69982;BME280;57319;56.274;43.980;2023-02-19T05:50:15;98674.53;;;-13.51;73.59
69982;BME280;57319;56.274;43.980;2023-02-19T05:52:41;98689.03;;;-13.43;74.17
69982;BME280;57319;56.274;43.980;2023-02-19T05:55:09;98679.97;;;-13.29;74.28
69982;BME280;57319;56.274;43.980;2023-02-19T05:57:45;98676.38;;;-13.21;73.87
69982;BME280;57319;56.274;43.980;2023-02-19T06:00:13;98673.88;;;-13.08;73.37
69982;BME280;57319;56.274;43.980;2023-02-19T06:02:39;98676.69;;;-13.03;73.32
69982;BME280;57319;56.274;43.980;2023-02-19T06:05:05;98673.22;;;-13.05;73.46
69982;BME280;57319;56.274;43.980;2023-02-19T06:07:31;98665.03;;;-13.04;73.23
69982;BME280;57319;56.274;43.980;2023-02-19T06:09:57;98673.72;;;-12.98;73.42
69982;BME280;57319;56.274;43.980;2023-02-19T06:12:23;98669.44;;;-13.00;73.74
69982;BME280;57319;56.274;43.980;2023-02-19T06:14:48;98668.09;;;-12.95;73.75
69982;BME280;57319;56.274;43.980;2023-02-19T06:17:14;98668.97;;;-12.81;73.38
69982;BME280;57319;56.274;43.980;2023-02-19T06:19:40;98669.53;;;-12.72;73.20
69982;BME280;57319;56.274;43.980;2023-02-19T06:22:06;98661.31;;;-12.71;73.30
69982;BME280;57319;56.274;43.980;2023-02-19T06:24:31;98659.53;;;-12.73;73.41
69982;BME280;57319;56.274;43.980;2023-02-19T06:26:57;98661.44;;;-12.69;73.20
69982;BME280;57319;56.274;43.980;2023-02-19T06:29:23;98663.59;;;-12.60;72.66
69982;BME280;57319;56.274;43.980;2023-02-19T06:31:49;98655.59;;;-12.56;72.86
69982;BME280;57319;56.274;43.980;2023-02-19T06:34:15;98664.09;;;-12.53;73.32
69982;BME280;57319;56.274;43.980;2023-02-19T06:36:40;98660.91;;;-12.50;72.63
69982;BME280;57319;56.274;43.980;2023-02-19T06:39:06;98648.34;;;-12.67;72.82
69982;BME280;57319;56.274;43.980;2023-02-19T06:41:32;98647.47;;;-12.54;73.39
69982;BME280;57319;56.274;43.980;2023-02-19T06:43:58;98652.44;;;-12.54;72.68
69982;BME280;57319;56.274;43.980;2023-02-19T06:46:24;98645.75;;;-12.41;72.94
69982;BME280;57319;56.274;43.980;2023-02-19T06:48:49;98643.03;;;-12.31;73.42
69982;BME280;57319;56.274;43.980;2023-02-19T06:51:17;98637.47;;;-12.27;72.96
69982;BME280;57319;56.274;43.980;2023-02-19T06:53:44;98631.44;;;-12.17;73.10
69982;BME280;57319;56.274;43.980;2023-02-19T06:58:56;98630.59;;;-12.18;72.65
69982;BME280;57319;56.274;43.980;2023-02-19T07:01:22;98650.03;;;-12.11;72.75
69982;BME280;57319;56.274;43.980;2023-02-19T07:03:50;98637.81;;;-12.07;72.38
69982;BME280;57319;56.274;43.980;2023-02-19T07:06:18;98648.00;;;-12.03;72.39
69982;BME280;57319;56.274;43.980;2023-02-19T07:08:44;98643.97;;;-12.01;72.62
69982;BME280;57319;56.274;43.980;2023-02-19T07:11:09;98642.00;;;-11.91;71.92
69982;BME280;57319;56.274;43.980;2023-02-19T07:13:35;98637.75;;;-11.79;72.44
69982;BME280;57319;56.274;43.980;2023-02-19T07:16:03;98637.84;;;-11.63;71.87
69982;BME280;57319;56.274;43.980;2023-02-19T07:18:29;98623.84;;;-11.62;71.54
69982;BME280;57319;56.274;43.980;2023-02-19T07:21:04;98604.19;;;-11.72;71.71
69982;BME280;57319;56.274;43.980;2023-02-19T07:23:30;98627.59;;;-11.54;72.03
69982;BME280;57319;56.274;43.980;2023-02-19T07:25:55;98625.00;;;-11.55;71.04
69982;BME280;57319;56.274;43.980;2023-02-19T07:28:21;98617.66;;;-11.54;70.97
69982;BME280;57319;56.274;43.980;2023-02-19T07:30:47;98627.25;;;-11.60;71.64
69982;BME280;57319;56.274;43.980;2023-02-19T07:33:12;98623.38;;;-11.70;71.44
69982;BME280;57319;56.274;43.980;2023-02-19T07:35:45;98619.78;;;-11.60;71.43
69982;BME280;57319;56.274;43.980;2023-02-19T07:38:11;98624.16;;;-11.56;71.88
69982;BME280;57319;56.274;43.980;2023-02-19T07:40:36;98629.56;;;-11.48;71.45
69982;BME280;57319;56.274;43.980;2023-02-19T07:43:02;98629.66;;;-11.47;71.40
69982;BME280;57319;56.274;43.980;2023-02-19T07:45:28;98631.69;;;-11.39;71.73
69982;BME280;57319;56.274;43.980;2023-02-19T07:47:55;98629.38;;;-11.36;72.13
69982;BME280;57319;56.274;43.980;2023-02-19T07:50:20;98627.25;;;-11.30;72.14
69982;BME280;57319;56.274;43.980;2023-02-19T07:52:46;98622.97;;;-11.18;72.35
69982;BME280;57319;56.274;43.980;2023-02-19T07:55:12;98621.47;;;-10.99;72.23
69982;BME280;57319;56.274;43.980;2023-02-19T07:57:38;98627.44;;;-10.81;71.51
69982;BME280;57319;56.274;43.980;2023-02-19T08:00:04;98626.16;;;-10.74;71.44
69982;BME280;57319;56.274;43.980;2023-02-19T08:02:30;98608.88;;;-10.71;71.38
69982;BME280;57319;56.274;43.980;2023-02-19T08:05:15;98612.03;;;-10.59;70.61
69982;BME280;57319;56.274;43.980;2023-02-19T08:07:40;98603.56;;;-10.46;70.98
69982;BME280;57319;56.274;43.980;2023-02-19T08:10:06;98605.44;;;-10.42;70.47
69982;BME280;57319;56.274;43.980;2023-02-19T08:12:57;98603.28;;;-10.35;70.78
69982;BME280;57319;56.274;43.980;2023-02-19T08:15:42;98607.19;;;-10.23;70.64
69982;BME280;57319;56.274;43.980;2023-02-19T08:18:09;98606.66;;;-10.17;70.36
69982;BME280;57319;56.274;43.980;2023-02-19T08:20:35;98599.50;;;-10.11;70.60
69982;BME280;57319;56.274;43.980;2023-02-19T08:23:01;98600.81;;;-10.01;70.51
69982;BME280;57319;56.274;43.980;2023-02-19T08:25:27;98598.13;;;-10.06;70.34
69982;BME280;57319;56.274;43.980;2023-02-19T08:27:52;98604.72;;;-10.06;71.07
69982;BME280;57319;56.274;43.980;2023-02-19T08:30:18;98596.31;;;-9.92;70.91
69982;BME280;57319;56.274;43.980;2023-02-19T08:32:43;98596.13;;;-9.95;71.03
69982;BME280;57319;56.274;43.980;2023-02-19T08:35:09;98599.88;;;-9.86;70.46
69982;BME280;57319;56.274;43.980;2023-02-19T08:37:35;98598.16;;;-9.71;70.34
69982;BME280;57319;56.274;43.980;2023-02-19T08:40:00;98599.59;;;-9.58;69.98
69982;BME280;57319;56.274;43.980;2023-02-19T08:42:27;98580.81;;;-9.51;69.48
69982;BME280;57319;56.274;43.980;2023-02-19T08:44:53;98586.72;;;-9.49;68.89
69982;BME280;57319;56.274;43.980;2023-02-19T08:47:18;98588.16;;;-9.36;69.10
69982;BME280;57319;56.274;43.980;2023-02-19T08:49:44;98593.09;;;-9.20;69.08
69982;BME280;57319;56.274;43.980;2023-02-19T08:52:10;98587.72;;;-9.28;68.52
69982;BME280;57319;56.274;43.980;2023-02-19T08:54:35;98586.97;;;-9.27;69.27
69982;BME280;57319;56.274;43.980;2023-02-19T08:57:01;98578.41;;;-9.14;69.14
69982;BME280;57319;56.274;43.980;2023-02-19T08:59:30;98570.16;;;-9.13;68.53
69982;BME280;57319;56.274;43.980;2023-02-19T09:01:58;98562.97;;;-9.07;68.80
69982;BME280;57319;56.274;43.980;2023-02-19T09:04:24;98568.94;;;-9.03;68.82
69982;BME280;57319;56.274;43.980;2023-02-19T09:06:50;98569.16;;;-8.98;68.36
69982;BME280;57319;56.274;43.980;2023-02-19T09:09:15;98573.19;;;-9.00;68.51
69982;BME280;57319;56.274;43.980;2023-02-19T09:11:41;98572.56;;;-8.96;68.89
69982;BME280;57319;56.274;43.980;2023-02-19T09:14:07;98572.28;;;-8.84;68.32
69982;BME280;57319;56.274;43.980;2023-02-19T09:16:34;98562.25;;;-8.66;68.13
69982;BME280;57319;56.274;43.980;2023-02-19T09:18:59;98566.13;;;-8.54;67.79
69982;BME280;57319;56.274;43.980;2023-02-19T09:21:25;98557.22;;;-8.48;67.09
69982;BME280;57319;56.274;43.980;2023-02-19T09:23:50;98560.94;;;-8.39;67.15
69982;BME280;57319;56.274;43.980;2023-02-19T09:26:16;98556.66;;;-8.22;66.81
69982;BME280;57319;56.274;43.980;2023-02-19T09:28:42;98551.16;;;-8.14;66.57
69982;BME280;57319;56.274;43.980;2023-02-19T09:31:12;98563.56;;;-7.96;66.22
69982;BME280;57319;56.274;43.980;2023-02-19T09:33:45;98549.06;;;-7.84;65.39
69982;BME280;57319;56.274;43.980;2023-02-19T09:36:12;98549.25;;;-7.79;64.76
69982;BME280;57319;56.274;43.980;2023-02-19T09:38:38;98552.31;;;-7.65;64.60
69982;BME280;57319;56.274;43.980;2023-02-19T09:41:07;98556.28;;;-7.50;64.13
69982;BME280;57319;56.274;43.980;2023-02-19T09:43:34;98543.16;;;-7.44;64.05
69982;BME280;57319;56.274;43.980;2023-02-19T09:46:23;98555.97;;;-7.36;63.74
69982;BME280;57319;56.274;43.980;2023-02-19T09:48:54;98552.81;;;-7.32;63.04
69982;BME280;57319;56.274;43.980;2023-02-19T09:51:25;98545.47;;;-7.27;63.03
69982;BME280;57319;56.274;43.980;2023-02-19T09:53:54;98544.16;;;-7.18;62.87
69982;BME280;57319;56.274;43.980;2023-02-19T09:56:21;98545.63;;;-7.02;62.66
69982;BME280;57319;56.274;43.980;2023-02-19T09:58:49;98538.56;;;-6.89;62.08
69982;BME280;57319;56.274;43.980;2023-02-19T10:01:16;98528.84;;;-7.04;61.70
69982;BME280;57319;56.274;43.980;2023-02-19T10:03:45;98528.00;;;-7.05;62.53
69982;BME280;57319;56.274;43.980;2023-02-19T10:06:24;98520.94;;;-7.15;61.94
69982;BME280;57319;56.274;43.980;2023-02-19T10:09:12;98524.53;;;-7.08;62.69
69982;BME280;57319;56.274;43.980;2023-02-19T10:11:41;98525.72;;;-6.99;62.37
69982;BME280;57319;56.274;43.980;2023-02-19T10:14:12;98525.63;;;-6.77;62.17
69982;BME280;57319;56.274;43.980;2023-02-19T10:16:43;98521.16;;;-6.63;61.69
69982;BME280;57319;56.274;43.980;2023-02-19T10:19:14;98515.03;;;-6.48;60.82
69982;BME280;57319;56.274;43.980;2023-02-19T10:21:40;98531.44;;;-6.56;60.88
69982;BME280;57319;56.274;43.980;2023-02-19T10:24:07;98531.28;;;-6.60;60.98
69982;BME280;57319;56.274;43.980;2023-02-19T10:26:35;98523.72;;;-6.62;60.89
69982;BME280;57319;56.274;43.980;2023-02-19T10:29:04;98519.59;;;-6.84;61.46
69982;BME280;57319;56.274;43.980;2023-02-19T10:31:31;98521.25;;;-6.83;61.39
69982;BME280;57319;56.274;43.980;2023-02-19T10:33:59;98510.06;;;-6.93;62.22
69982;BME280;57319;56.274;43.980;2023-02-19T10:36:28;98516.75;;;-6.93;61.27
69982;BME280;57319;56.274;43.980;2023-02-19T10:38:54;98513.84;;;-7.04;61.96
69982;BME280;57319;56.274;43.980;2023-02-19T10:41:23;98513.03;;;-7.03;62.26
69982;BME280;57319;56.274;43.980;2023-02-19T10:44:17;98505.81;;;-6.95;61.71
69982;BME280;57319;56.274;43.980;2023-02-19T10:46:47;98491.91;;;-6.87;61.69
69982;BME280;57319;56.274;43.980;2023-02-19T10:49:32;98497.06;;;-6.84;61.17
69982;BME280;57319;56.274;43.980;2023-02-19T10:52:09;98493.94;;;-7.01;62.02
69982;BME280;57319;56.274;43.980;2023-02-19T10:54:43;98489.31;;;-6.90;61.77
69982;BME280;57319;56.274;43.980;2023-02-19T11:02:27;98484.72;;;-7.02;61.78
69982;BME280;57319;56.274;43.980;2023-02-19T11:07:29;98486.66;;;-7.40;62.39
69982;BME280;57319;56.274;43.980;2023-02-19T11:09:55;98479.94;;;-7.41;62.90
69982;BME280;57319;56.274;43.980;2023-02-19T11:12:33;98480.50;;;-7.48;62.55
69982;BME280;57319;56.274;43.980;2023-02-19T11:17:44;98474.16;;;-7.40;62.52
69982;BME280;57319;56.274;43.980;2023-02-19T11:20:14;98469.00;;;-7.43;62.25
69982;BME280;57319;56.274;43.980;2023-02-19T11:22:43;98469.81;;;-7.44;62.22
69982;BME280;57319;56.274;43.980;2023-02-19T11:32:56;98456.91;;;-6.13;58.23
69982;BME280;57319;56.274;43.980;2023-02-19T11:35:29;98447.16;;;-5.78;57.36
69982;BME280;57319;56.274;43.980;2023-02-19T11:37:57;98459.44;;;-6.39;58.09
69982;BME280;57319;56.274;43.980;2023-02-19T11:40:44;98457.63;;;-7.14;60.76
69982;BME280;57319;56.274;43.980;2023-02-19T11:57:26;98458.16;;;-7.88;63.09
69982;BME280;57319;56.274;43.980;2023-02-19T12:08:46;98450.34;;;-8.16;63.71
69982;BME280;57319;56.274;43.980;2023-02-19T12:11:40;98454.16;;;-8.25;63.87
69982;BME280;57319;56.274;43.980;2023-02-19T12:22:26;98465.72;;;-8.48;64.02
69982;BME280;57319;56.274;43.980;2023-02-19T12:27:37;98449.72;;;-8.73;64.09
69982;BME280;57319;56.274;43.980;2023-02-19T12:38:01;98473.31;;;-9.23;65.14
69982;BME280;57319;56.274;43.980;2023-02-19T12:40:54;98469.44;;;-9.34;65.28
69982;BME280;57319;56.274;43.980;2023-02-19T12:43:23;98470.03;;;-9.40;65.49
69982;BME280;57319;56.274;43.980;2023-02-19T12:49:33;98464.22;;;-9.59;65.76
69982;BME280;57319;56.274;43.980;2023-02-19T12:51:46;98470.19;;;-9.73;66.27
69982;BME280;57319;56.274;43.980;2023-02-19T12:54:22;98480.00;;;-9.76;66.28
69982;BME280;57319;56.274;43.980;2023-02-19T12:57:02;98474.44;;;-9.89;66.35
69982;BME280;57319;56.274;43.980;2023-02-19T12:59:34;98478.78;;;-10.02;66.87
69982;BME280;57319;56.274;43.980;2023-02-19T13:02:19;98482.00;;;-10.21;66.69
69982;BME280;57319;56.274;43.980;2023-02-19T13:07:43;98473.31;;;-10.30;67.45
69982;BME280;57319;56.274;43.980;2023-02-19T13:12:45;98473.56;;;-10.42;68.13
69982;BME280;57319;56.274;43.980;2023-02-19T13:15:17;98488.28;;;-10.46;67.45
69982;BME280;57319;56.274;43.980;2023-02-19T13:17:50;98485.41;;;-10.54;68.42
69982;BME280;57319;56.274;43.980;2023-02-19T13:20:40;98471.03;;;-10.60;68.08
69982;BME280;57319;56.274;43.980;2023-02-19T13:23:29;98470.56;;;-10.69;68.76
69982;BME280;57319;56.274;43.980;2023-02-19T13:29:40;98479.97;;;-10.80;68.87
69982;BME280;57319;56.274;43.980;2023-02-19T13:37:40;98459.81;;;-11.01;69.50
69982;BME280;57319;56.274;43.980;2023-02-19T13:42:58;98461.13;;;-11.07;70.30
69982;BME280;57319;56.274;43.980;2023-02-19T13:45:37;98463.63;;;-11.07;70.64
69982;BME280;57319;56.274;43.980;2023-02-19T13:48:25;98468.38;;;-11.12;70.22
69982;BME280;57319;56.274;43.980;2023-02-19T14:14:47;98468.06;;;-11.50;71.27
69982;BME280;57319;56.274;43.980;2023-02-19T14:23:00;98460.94;;;-11.58;72.21
69982;BME280;57319;56.274;43.980;2023-02-19T14:30:27;98459.75;;;-11.65;71.83
69982;BME280;57319;56.274;43.980;2023-02-19T14:32:53;98457.88;;;-11.69;72.02
69982;BME280;57319;56.274;43.980;2023-02-19T14:35:36;98455.94;;;-11.75;72.44
69982;BME280;57319;56.274;43.980;2023-02-19T14:38:03;98456.81;;;-11.74;72.72
69982;BME280;57319;56.274;43.980;2023-02-19T14:40:37;98444.22;;;-11.78;72.62
69982;BME280;57319;56.274;43.980;2023-02-19T14:43:05;98456.53;;;-11.79;72.55
69982;BME280;57319;56.274;43.980;2023-02-19T14:45:38;98458.03;;;-11.83;72.50
69982;BME280;57319;56.274;43.980;2023-02-19T14:48:05;98466.47;;;-11.79;72.59
69982;BME280;57319;56.274;43.980;2023-02-19T14:50:38;98463.91;;;-11.81;72.23
69982;BME280;57319;56.274;43.980;2023-02-19T14:53:05;98458.03;;;-11.83;72.36
69982;BME280;57319;56.274;43.980;2023-02-19T14:55:34;98450.28;;;-11.87;72.28
69982;BME280;57319;56.274;43.980;2023-02-19T14:58:14;98448.50;;;-11.90;72.75
69982;BME280;57319;56.274;43.980;2023-02-19T15:00:42;98462.97;;;-11.83;72.61
69982;BME280;57319;56.274;43.980;2023-02-19T15:03:30;98453.66;;;-11.87;72.83
69982;BME280;57319;56.274;43.980;2023-02-19T15:06:07;98456.63;;;-11.78;72.65
69982;BME280;57319;56.274;43.980;2023-02-19T15:08:44;98455.69;;;-11.80;72.42
69982;BME280;57319;56.274;43.980;2023-02-19T15:11:16;98443.88;;;-11.84;72.48
69982;BME280;57319;56.274;43.980;2023-02-19T15:13:50;98448.28;;;-11.95;72.69
69982;BME280;57319;56.274;43.980;2023-02-19T15:16:18;98458.28;;;-11.93;72.35
69982;BME280;57319;56.274;43.980;2023-02-19T15:18:45;98453.25;;;-11.95;72.65
69982;BME280;57319;56.274;43.980;2023-02-19T15:21:39;98443.50;;;-12.06;73.13
69982;BME280;57319;56.274;43.980;2023-02-19T15:24:11;98443.78;;;-12.02;72.67
69982;BME280;57319;56.274;43.980;2023-02-19T15:26:40;98449.81;;;-11.97;72.33